sensor_id;sensor_type;location;lat;lon;timestamp;pressure;altitude;pressure_sealevel;temperature;humidity
14295;BME280;7231;59.370;18.016;2023-09-19T00:01:08;100100.75;;;16.52;100.00
14295;BME280;7231;59.370;18.016;2023-09-19T00:03:40;100096.31;;;16.53;100.00
14295;BME280;7231;59.370;18.016;2023-09-19T00:06:10;100091.94;;;16.50;100.00
14295;BME280;7231;59.370;18.016;2023-09-19T00:08:40;99990.06;;;15.98;100.00
14295;BME280;7231;59.370;18.016;2023-09-19T00:11:10;100083.97;;;16.53;100.00
14295;BME280;7231;59.370;18.016;2023-09-19T00:13:38;100076.91;;;16.54;100.00
14295;BME280;7231;59.370;18.016;2023-09-19T00:16:09;100057.59;;;16.44;100.00
14295;BME280;7231;59.370;18.016;2023-09-19T00:18:40;100069.81;;;16.59;100.00
14295;BME280;7231;59.370;18.016;2023-09-19T00:21:09;100071.56;;;16.60;100.00
14295;BME280;7231;59.370;18.016;2023-09-19T00:23:38;100061.84;;;16.61;100.00
14295;BME280;7231;59.370;18.016;2023-09-19T00:26:07;100063.59;;;16.62;100.00
14295;BME280;7231;59.370;18.016;2023-09-19T00:28:35;100050.38;;;16.63;100.00
14295;BME280;7231;59.370;18.016;2023-09-19T00:31:03;100057.44;;;16.66;100.00
14295;BME280;7231;59.370;18.016;2023-09-19T00:33:32;100038.03;;;16.61;100.00
14295;BME280;7231;59.370;18.016;2023-09-19T00:36:02;100051.22;;;16.70;100.00
14295;BME280;7231;59.370;18.016;2023-09-19T00:38:32;100037.09;;;16.71;100.00
14295;BME280;7231;59.370;18.016;2023-09-19T00:41:00;100028.25;;;16.72;100.00
14295;BME280;7231;59.370;18.016;2023-09-19T00:43:29;100028.22;;;16.75;100.00
14295;BME280;7231;59.370;18.016;2023-09-19T00:46:01;100022.03;;;16.77;100.00
14295;BME280;7231;59.370;18.016;2023-09-19T00:48:30;100014.03;;;16.80;100.00
14295;BME280;7231;59.370;18.016;2023-09-19T00:51:03;100020.19;;;16.84;100.00
14295;BME280;7231;59.370;18.016;2023-09-19T00:53:32;100010.44;;;16.87;100.00
14295;BME280;7231;59.370;18.016;2023-09-19T00:56:01;100009.53;;;16.88;100.00
14295;BME280;7231;59.370;18.016;2023-09-19T00:58:32;100010.41;;;16.92;100.00
14295;BME280;7231;59.370;18.016;2023-09-19T01:01:01;99998.88;;;16.95;100.00
14295;BME280;7231;59.370;18.016;2023-09-19T01:03:30;99997.97;;;16.97;100.00
14295;BME280;7231;59.370;18.016;2023-09-19T01:05:59;99982.97;;;16.96;100.00
14295;BME280;7231;59.370;18.016;2023-09-19T01:08:29;99989.97;;;17.02;100.00
14295;BME280;7231;59.370;18.016;2023-09-19T01:11:02;99954.75;;;16.95;100.00
14295;BME280;7231;59.370;18.016;2023-09-19T01:13:44;99980.16;;;17.10;100.00
14295;BME280;7231;59.370;18.016;2023-09-19T01:16:19;99951.91;;;17.10;100.00
14295;BME280;7231;59.370;18.016;2023-09-19T01:18:59;99949.19;;;17.16;100.00
14295;BME280;7231;59.370;18.016;2023-09-19T01:21:37;99942.94;;;17.20;100.00
14295;BME280;7231;59.370;18.016;2023-09-19T01:24:30;99930.63;;;17.16;100.00
14295;BME280;7231;59.370;18.016;2023-09-19T01:27:27;99931.38;;;17.28;100.00
14295;BME280;7231;59.370;18.016;2023-09-19T01:30:09;99926.91;;;17.31;100.00
14295;BME280;7231;59.370;18.016;2023-09-19T01:32:38;99927.75;;;17.35;100.00
14295;BME280;7231;59.370;18.016;2023-09-19T01:35:08;99921.53;;;17.37;100.00
14295;BME280;7231;59.370;18.016;2023-09-19T01:37:39;99917.06;;;17.41;100.00
14295;BME280;7231;59.370;18.016;2023-09-19T01:40:12;99884.47;;;17.34;100.00
14295;BME280;7231;59.370;18.016;2023-09-19T01:42:46;99895.81;;;17.44;100.00
14295;BME280;7231;59.370;18.016;2023-09-19T01:45:26;99889.53;;;17.49;100.00
14295;BME280;7231;59.370;18.016;2023-09-19T01:47:55;99892.16;;;17.51;100.00
14295;BME280;7231;59.370;18.016;2023-09-19T01:50:30;99872.81;;;17.46;100.00
14295;BME280;7231;59.370;18.016;2023-09-19T01:53:06;99879.75;;;17.55;100.00
14295;BME280;7231;59.370;18.016;2023-09-19T01:55:37;99847.31;;;17.39;100.00
14295;BME280;7231;59.370;18.016;2023-09-19T01:58:15;99878.81;;;17.57;100.00
14295;BME280;7231;59.370;18.016;2023-09-19T02:00:48;99875.28;;;17.58;100.00
14295;BME280;7231;59.370;18.016;2023-09-19T02:03:20;99846.19;;;17.53;100.00
14295;BME280;7231;59.370;18.016;2023-09-19T02:05:50;99858.47;;;17.59;100.00
14295;BME280;7231;59.370;18.016;2023-09-19T02:08:22;99850.50;;;17.59;100.00
14295;BME280;7231;59.370;18.016;2023-09-19T02:10:51;99841.72;;;17.56;100.00
14295;BME280;7231;59.370;18.016;2023-09-19T02:13:20;99840.81;;;17.58;100.00
14295;BME280;7231;59.370;18.016;2023-09-19T02:15:53;99840.78;;;17.60;100.00
14295;BME280;7231;59.370;18.016;2023-09-19T02:18:22;99845.22;;;17.59;100.00
14295;BME280;7231;59.370;18.016;2023-09-19T02:20:50;99837.25;;;17.59;100.00
14295;BME280;7231;59.370;18.016;2023-09-19T02:23:21;99818.75;;;17.56;100.00
14295;BME280;7231;59.370;18.016;2023-09-19T02:25:52;99801.97;;;17.56;100.00
14295;BME280;7231;59.370;18.016;2023-09-19T02:28:20;99785.13;;;17.60;100.00
14295;BME280;7231;59.370;18.016;2023-09-19T02:30:49;99776.28;;;17.59;100.00
14295;BME280;7231;59.370;18.016;2023-09-19T02:33:18;99755.22;;;17.51;100.00
14295;BME280;7231;59.370;18.016;2023-09-19T02:35:46;99765.78;;;17.53;100.00
14295;BME280;7231;59.370;18.016;2023-09-19T02:38:15;99768.34;;;17.59;100.00
14295;BME280;7231;59.370;18.016;2023-09-19T02:40:47;99775.41;;;17.60;100.00
14295;BME280;7231;59.370;18.016;2023-09-19T02:43:15;99763.00;;;17.61;100.00
14295;BME280;7231;59.370;18.016;2023-09-19T02:45:43;99767.41;;;17.62;100.00
14295;BME280;7231;59.370;18.016;2023-09-19T02:48:13;99754.16;;;17.62;100.00
14295;BME280;7231;59.370;18.016;2023-09-19T02:50:43;99735.63;;;17.60;100.00
14295;BME280;7231;59.370;18.016;2023-09-19T02:53:12;99740.84;;;17.65;100.00
14295;BME280;7231;59.370;18.016;2023-09-19T02:55:40;99734.69;;;17.66;100.00
14295;BME280;7231;59.370;18.016;2023-09-19T02:58:09;99721.41;;;17.64;100.00
14295;BME280;7231;59.370;18.016;2023-09-19T03:00:38;99711.66;;;17.68;100.00
14295;BME280;7231;59.370;18.016;2023-09-19T03:03:08;99706.38;;;17.68;100.00
14295;BME280;7231;59.370;18.016;2023-09-19T03:05:37;99692.25;;;17.66;100.00
14295;BME280;7231;59.370;18.016;2023-09-19T03:08:06;99682.47;;;17.69;100.00
14295;BME280;7231;59.370;18.016;2023-09-19T03:10:34;99672.78;;;17.68;100.00
14295;BME280;7231;59.370;18.016;2023-09-19T03:13:04;99672.78;;;17.68;100.00
14295;BME280;7231;59.370;18.016;2023-09-19T03:15:32;99657.78;;;17.67;100.00
14295;BME280;7231;59.370;18.016;2023-09-19T03:18:01;99651.53;;;17.70;100.00
14295;BME280;7231;59.370;18.016;2023-09-19T03:20:29;99625.28;;;17.56;100.00
14295;BME280;7231;59.370;18.016;2023-09-19T03:22:57;99637.41;;;17.69;100.00
14295;BME280;7231;59.370;18.016;2023-09-19T03:25:25;99619.78;;;17.67;100.00
14295;BME280;7231;59.370;18.016;2023-09-19T03:27:56;99624.22;;;17.66;100.00
14295;BME280;7231;59.370;18.016;2023-09-19T03:30:24;99605.66;;;17.65;100.00
14295;BME280;7231;59.370;18.016;2023-09-19T03:32:53;99589.97;;;17.54;100.00
14295;BME280;7231;59.370;18.016;2023-09-19T03:35:21;99587.13;;;17.63;100.00
14295;BME280;7231;59.370;18.016;2023-09-19T03:37:49;99570.66;;;17.49;100.00
14295;BME280;7231;59.370;18.016;2023-09-19T03:40:19;99602.16;;;17.63;100.00
14295;BME280;7231;59.370;18.016;2023-09-19T03:42:50;99603.06;;;17.62;100.00
14295;BME280;7231;59.370;18.016;2023-09-19T03:45:18;99591.59;;;17.61;100.00
14295;BME280;7231;59.370;18.016;2023-09-19T03:47:46;99594.25;;;17.61;100.00
14295;BME280;7231;59.370;18.016;2023-09-19T03:50:15;99533.81;;;17.35;100.00
14295;BME280;7231;59.370;18.016;2023-09-19T03:52:44;99571.25;;;17.62;100.00
14295;BME280;7231;59.370;18.016;2023-09-19T03:55:12;99571.25;;;17.62;100.00
14295;BME280;7231;59.370;18.016;2023-09-19T03:57:40;99563.34;;;17.60;100.00
14295;BME280;7231;59.370;18.016;2023-09-19T04:00:11;99571.28;;;17.60;100.00
14295;BME280;7231;59.370;18.016;2023-09-19T04:02:41;99567.75;;;17.61;100.00
14295;BME280;7231;59.370;18.016;2023-09-19T04:05:09;99541.53;;;17.47;100.00
14295;BME280;7231;59.370;18.016;2023-09-19T04:07:37;99566.00;;;17.60;100.00
14295;BME280;7231;59.370;18.016;2023-09-19T04:10:06;99566.81;;;17.64;100.00
14295;BME280;7231;59.370;18.016;2023-09-19T04:12:35;99570.31;;;17.64;100.00
14295;BME280;7231;59.370;18.016;2023-09-19T04:15:04;99562.38;;;17.64;100.00
14295;BME280;7231;59.370;18.016;2023-09-19T04:17:33;99559.72;;;17.66;100.00
14295;BME280;7231;59.370;18.016;2023-09-19T04:20:02;99544.72;;;17.63;100.00
14295;BME280;7231;59.370;18.016;2023-09-19T04:22:33;99543.91;;;17.60;100.00
14295;BME280;7231;59.370;18.016;2023-09-19T04:25:02;99555.28;;;17.66;100.00
14295;BME280;7231;59.370;18.016;2023-09-19T04:27:30;99542.97;;;17.62;100.00
14295;BME280;7231;59.370;18.016;2023-09-19T04:29:58;99530.66;;;17.60;100.00
14295;BME280;7231;59.370;18.016;2023-09-19T04:32:28;99537.75;;;17.59;100.00
14295;BME280;7231;59.370;18.016;2023-09-19T04:34:57;99533.25;;;17.63;100.00
14295;BME280;7231;59.370;18.016;2023-09-19T04:37:29;99509.84;;;17.41;100.00
14295;BME280;7231;59.370;18.016;2023-09-19T04:39:57;99550.06;;;17.62;100.00
14295;BME280;7231;59.370;18.016;2023-09-19T04:42:25;99543.88;;;17.61;100.00
14295;BME280;7231;59.370;18.016;2023-09-19T04:44:53;99546.47;;;17.64;100.00
14295;BME280;7231;59.370;18.016;2023-09-19T04:47:22;99520.97;;;17.59;100.00
14295;BME280;7231;59.370;18.016;2023-09-19T04:49:50;99509.63;;;17.52;100.00
14295;BME280;7231;59.370;18.016;2023-09-19T04:52:19;99512.81;;;17.69;100.00
14295;BME280;7231;59.370;18.016;2023-09-19T04:54:47;99508.38;;;17.70;100.00
14295;BME280;7231;59.370;18.016;2023-09-19T04:57:15;99501.25;;;17.73;100.00
14295;BME280;7231;59.370;18.016;2023-09-19T04:59:43;99504.75;;;17.74;100.00
14295;BME280;7231;59.370;18.016;2023-09-19T05:02:11;99482.78;;;17.69;100.00
14295;BME280;7231;59.370;18.016;2023-09-19T05:04:40;99495.88;;;17.76;100.00
14295;BME280;7231;59.370;18.016;2023-09-19T05:07:08;99446.84;;;17.54;100.00
14295;BME280;7231;59.370;18.016;2023-09-19T05:09:38;99484.38;;;17.76;100.00
14295;BME280;7231;59.370;18.016;2023-09-19T05:12:08;99461.69;;;17.63;100.00
14295;BME280;7231;59.370;18.016;2023-09-19T05:14:37;99474.69;;;17.75;100.00
14295;BME280;7231;59.370;18.016;2023-09-19T05:17:07;99477.28;;;17.78;100.00
14295;BME280;7231;59.370;18.016;2023-09-19T05:19:35;99467.50;;;17.80;100.00
14295;BME280;7231;59.370;18.016;2023-09-19T05:22:03;99468.44;;;17.77;100.00
14295;BME280;7231;59.370;18.016;2023-09-19T05:24:33;99471.78;;;17.86;100.00
14295;BME280;7231;59.370;18.016;2023-09-19T05:27:03;99459.41;;;17.86;100.00
14295;BME280;7231;59.370;18.016;2023-09-19T05:29:31;99438.22;;;17.84;100.00
14295;BME280;7231;59.370;18.016;2023-09-19T05:32:00;99444.28;;;17.90;100.00
14295;BME280;7231;59.370;18.016;2023-09-19T05:34:28;99442.44;;;17.93;100.00
14295;BME280;7231;59.370;18.016;2023-09-19T05:36:57;99437.13;;;17.93;100.00
14295;BME280;7231;59.370;18.016;2023-09-19T05:39:24;99430.88;;;17.96;100.00
14295;BME280;7231;59.370;18.016;2023-09-19T05:41:53;99436.19;;;17.96;100.00
14295;BME280;7231;59.370;18.016;2023-09-19T05:44:23;99426.34;;;18.01;100.00
14295;BME280;7231;59.370;18.016;2023-09-19T05:46:51;99422.75;;;18.03;100.00
14295;BME280;7231;59.370;18.016;2023-09-19T05:49:19;99434.94;;;18.10;100.00
14295;BME280;7231;59.370;18.016;2023-09-19T05:51:48;99419.00;;;18.12;100.00
14295;BME280;7231;59.370;18.016;2023-09-19T05:54:20;99423.38;;;18.13;100.00
14295;BME280;7231;59.370;18.016;2023-09-19T05:56:48;99412.81;;;18.11;100.00
14295;BME280;7231;59.370;18.016;2023-09-19T05:59:19;99399.81;;;18.01;100.00
14295;BME280;7231;59.370;18.016;2023-09-19T06:01:48;99413.59;;;18.15;100.00
14295;BME280;7231;59.370;18.016;2023-09-19T06:04:19;99416.22;;;18.16;100.00
14295;BME280;7231;59.370;18.016;2023-09-19T06:06:48;99410.03;;;18.16;100.00
14295;BME280;7231;59.370;18.016;2023-09-19T06:09:16;99418.00;;;18.16;100.00
14295;BME280;7231;59.370;18.016;2023-09-19T06:11:43;99407.31;;;18.19;100.00
14295;BME280;7231;59.370;18.016;2023-09-19T06:14:12;99403.69;;;18.22;100.00
14295;BME280;7231;59.370;18.016;2023-09-19T06:16:40;99409.81;;;18.24;100.00
14295;BME280;7231;59.370;18.016;2023-09-19T06:19:11;99406.22;;;18.26;100.00
14295;BME280;7231;59.370;18.016;2023-09-19T06:21:39;99402.66;;;18.27;100.00
14295;BME280;7231;59.370;18.016;2023-09-19T06:24:07;99402.66;;;18.27;100.00
14295;BME280;7231;59.370;18.016;2023-09-19T06:26:35;99405.25;;;18.29;100.00
14295;BME280;7231;59.370;18.016;2023-09-19T06:29:03;99400.00;;;18.27;100.00
14295;BME280;7231;59.370;18.016;2023-09-19T06:31:34;99398.16;;;18.29;100.00
14295;BME280;7231;59.370;18.016;2023-09-19T06:34:02;99385.94;;;18.24;100.00
14295;BME280;7231;59.370;18.016;2023-09-19T06:36:31;99388.56;;;18.25;100.00
14295;BME280;7231;59.370;18.016;2023-09-19T06:38:59;99392.91;;;18.28;100.00
14295;BME280;7231;59.370;18.016;2023-09-19T06:41:27;99391.13;;;18.28;100.00
14295;BME280;7231;59.370;18.016;2023-09-19T06:43:55;99383.13;;;18.30;100.00
14295;BME280;7231;59.370;18.016;2023-09-19T06:46:24;99381.31;;;18.32;100.00
14295;BME280;7231;59.370;18.016;2023-09-19T06:48:52;99380.44;;;18.31;100.00
14295;BME280;7231;59.370;18.016;2023-09-19T06:51:20;99376.00;;;18.32;100.00
14295;BME280;7231;59.370;18.016;2023-09-19T06:53:50;99374.16;;;18.34;100.00
14295;BME280;7231;59.370;18.016;2023-09-19T06:56:21;99371.38;;;18.38;100.00
14295;BME280;7231;59.370;18.016;2023-09-19T06:58:51;99372.25;;;18.39;100.00
14295;BME280;7231;59.370;18.016;2023-09-19T07:01:19;99365.34;;;18.33;100.00
14295;BME280;7231;59.370;18.016;2023-09-19T07:03:48;99375.03;;;18.34;100.00
14295;BME280;7231;59.370;18.016;2023-09-19T07:06:16;99371.59;;;18.31;100.00
14295;BME280;7231;59.370;18.016;2023-09-19T07:08:44;99381.38;;;18.29;100.00
14295;BME280;7231;59.370;18.016;2023-09-19T07:11:13;99372.63;;;18.25;100.00
14295;BME280;7231;59.370;18.016;2023-09-19T07:13:42;99369.97;;;18.25;100.00
14295;BME280;7231;59.370;18.016;2023-09-19T07:16:10;99352.41;;;18.21;100.00
14295;BME280;7231;59.370;18.016;2023-09-19T07:18:54;99359.50;;;18.21;100.00
14295;BME280;7231;59.370;18.016;2023-09-19T07:21:23;99349.81;;;18.20;100.00
14295;BME280;7231;59.370;18.016;2023-09-19T07:23:51;99356.00;;;18.20;100.00
14295;BME280;7231;59.370;18.016;2023-09-19T07:26:20;99345.44;;;18.19;100.00
14295;BME280;7231;59.370;18.016;2023-09-19T07:28:48;99336.59;;;18.18;100.00
14295;BME280;7231;59.370;18.016;2023-09-19T07:31:16;99341.00;;;18.19;100.00
14295;BME280;7231;59.370;18.016;2023-09-19T07:33:44;99338.34;;;18.19;100.00
14295;BME280;7231;59.370;18.016;2023-09-19T07:36:12;99332.22;;;18.17;100.00
14295;BME280;7231;59.370;18.016;2023-09-19T07:38:40;99306.66;;;18.13;100.00
14295;BME280;7231;59.370;18.016;2023-09-19T07:41:09;99319.66;;;18.22;100.00
14295;BME280;7231;59.370;18.016;2023-09-19T07:43:38;99319.66;;;18.22;100.00
14295;BME280;7231;59.370;18.016;2023-09-19T07:46:07;99307.47;;;18.16;100.00
14295;BME280;7231;59.370;18.016;2023-09-19T07:48:36;99316.03;;;18.25;100.00
14295;BME280;7231;59.370;18.016;2023-09-19T07:51:05;99309.78;;;18.27;100.00
14295;BME280;7231;59.370;18.016;2023-09-19T07:53:34;99314.13;;;18.30;100.00
14295;BME280;7231;59.370;18.016;2023-09-19T07:56:04;99302.53;;;18.34;100.00
14295;BME280;7231;59.370;18.016;2023-09-19T07:58:33;99298.88;;;18.38;100.00
14295;BME280;7231;59.370;18.016;2023-09-19T08:01:07;99292.53;;;18.43;100.00
14295;BME280;7231;59.370;18.016;2023-09-19T08:03:37;99275.94;;;18.35;100.00
14295;BME280;7231;59.370;18.016;2023-09-19T08:06:07;99303.69;;;18.55;100.00
14295;BME280;7231;59.370;18.016;2023-09-19T08:08:36;99272.03;;;18.48;100.00
14295;BME280;7231;59.370;18.016;2023-09-19T08:11:06;99293.81;;;18.60;100.00
14295;BME280;7231;59.370;18.016;2023-09-19T08:13:38;99270.88;;;18.57;100.00
14295;BME280;7231;59.370;18.016;2023-09-19T08:16:11;99275.97;;;18.66;100.00
14295;BME280;7231;59.370;18.016;2023-09-19T08:18:40;99282.00;;;18.71;100.00
14295;BME280;7231;59.370;18.016;2023-09-19T08:21:08;99281.88;;;18.76;100.00
14295;BME280;7231;59.370;18.016;2023-09-19T08:23:38;99286.31;;;18.75;100.00
14295;BME280;7231;59.370;18.016;2023-09-19T08:26:06;99281.91;;;18.74;100.00
14295;BME280;7231;59.370;18.016;2023-09-19T08:28:35;99277.47;;;18.75;100.00
14295;BME280;7231;59.370;18.016;2023-09-19T08:31:04;99282.88;;;18.72;100.00
14295;BME280;7231;59.370;18.016;2023-09-19T08:33:34;99290.75;;;18.75;100.00
14295;BME280;7231;59.370;18.016;2023-09-19T08:36:03;99287.19;;;18.76;100.00
14295;BME280;7231;59.370;18.016;2023-09-19T08:38:33;99279.13;;;18.79;100.00
14295;BME280;7231;59.370;18.016;2023-09-19T08:41:06;99262.44;;;18.74;100.00
14295;BME280;7231;59.370;18.016;2023-09-19T08:43:35;99277.91;;;18.89;100.00
14295;BME280;7231;59.370;18.016;2023-09-19T08:46:10;99276.97;;;18.92;100.00
14295;BME280;7231;59.370;18.016;2023-09-19T08:48:45;99266.34;;;18.92;100.00
14295;BME280;7231;59.370;18.016;2023-09-19T08:51:18;99254.69;;;18.96;100.00
14295;BME280;7231;59.370;18.016;2023-09-19T08:53:51;99267.69;;;19.05;100.00
14295;BME280;7231;59.370;18.016;2023-09-19T08:56:22;99251.75;;;19.05;100.00
14295;BME280;7231;59.370;18.016;2023-09-19T08:58:57;99262.81;;;19.19;100.00
14295;BME280;7231;59.370;18.016;2023-09-19T09:01:27;99258.88;;;19.31;100.00
14295;BME280;7231;59.370;18.016;2023-09-19T09:03:58;99259.41;;;19.42;100.00
14295;BME280;7231;59.370;18.016;2023-09-19T09:06:26;99250.34;;;19.48;100.00
14295;BME280;7231;59.370;18.016;2023-09-19T09:08:56;99250.31;;;19.49;100.00
14295;BME280;7231;59.370;18.016;2023-09-19T09:11:24;99231.53;;;19.55;100.00
14295;BME280;7231;59.370;18.016;2023-09-19T09:13:52;99238.59;;;19.81;100.00
14295;BME280;7231;59.370;18.016;2023-09-19T09:16:20;99220.41;;;19.94;100.00
14295;BME280;7231;59.370;18.016;2023-09-19T09:18:49;99221.88;;;20.02;100.00
14295;BME280;7231;59.370;18.016;2023-09-19T09:21:22;99224.69;;;19.98;100.00
14295;BME280;7231;59.370;18.016;2023-09-19T09:23:52;99221.22;;;19.96;100.00
14295;BME280;7231;59.370;18.016;2023-09-19T09:26:40;99216.72;;;19.98;100.00
14295;BME280;7231;59.370;18.016;2023-09-19T09:29:09;99210.25;;;20.05;100.00
14295;BME280;7231;59.370;18.016;2023-09-19T09:31:37;99204.00;;;20.06;100.00
14295;BME280;7231;59.370;18.016;2023-09-19T09:34:06;99208.00;;;20.18;100.00
14295;BME280;7231;59.370;18.016;2023-09-19T09:36:36;99198.81;;;20.26;100.00
14295;BME280;7231;59.370;18.016;2023-09-19T09:39:05;99220.31;;;20.45;100.00
14295;BME280;7231;59.370;18.016;2023-09-19T09:41:45;99215.44;;;20.56;100.00
14295;BME280;7231;59.370;18.016;2023-09-19T09:44:14;99206.25;;;20.65;98.91
14295;BME280;7231;59.370;18.016;2023-09-19T09:46:45;99213.41;;;20.63;96.83
14295;BME280;7231;59.370;18.016;2023-09-19T09:49:48;99207.28;;;20.61;97.09
14295;BME280;7231;59.370;18.016;2023-09-19T09:52:23;99224.31;;;20.57;95.67
14295;BME280;7231;59.370;18.016;2023-09-19T09:54:58;99211.56;;;20.65;95.50
14295;BME280;7231;59.370;18.016;2023-09-19T09:57:27;99203.56;;;20.65;94.02
14295;BME280;7231;59.370;18.016;2023-09-19T09:59:57;99224.88;;;20.41;91.95
14295;BME280;7231;59.370;18.016;2023-09-19T10:02:42;99219.28;;;20.24;92.31
14295;BME280;7231;59.370;18.016;2023-09-19T10:05:15;99226.75;;;20.15;92.21
14295;BME280;7231;59.370;18.016;2023-09-19T10:07:51;99210.38;;;20.02;92.08
14295;BME280;7231;59.370;18.016;2023-09-19T10:10:30;99209.09;;;20.12;92.63
14295;BME280;7231;59.370;18.016;2023-09-19T10:13:06;99186.78;;;20.16;92.83
14295;BME280;7231;59.370;18.016;2023-09-19T10:15:39;99200.25;;;20.35;92.59
14295;BME280;7231;59.370;18.016;2023-09-19T10:18:10;99195.81;;;20.59;92.16
14295;BME280;7231;59.370;18.016;2023-09-19T10:20:45;99192.78;;;21.12;92.13
14295;BME280;7231;59.370;18.016;2023-09-19T10:23:17;99177.53;;;21.57;89.94
14295;BME280;7231;59.370;18.016;2023-09-19T10:25:50;99172.34;;;21.75;86.41
14295;BME280;7231;59.370;18.016;2023-09-19T10:28:20;99188.75;;;21.65;85.32
14295;BME280;7231;59.370;18.016;2023-09-19T10:30:50;99177.47;;;21.38;85.28
14295;BME280;7231;59.370;18.016;2023-09-19T10:33:21;99189.25;;;21.33;85.24
14295;BME280;7231;59.370;18.016;2023-09-19T10:35:50;99185.03;;;21.05;84.74
14295;BME280;7231;59.370;18.016;2023-09-19T10:38:23;99174.56;;;21.01;85.45
14295;BME280;7231;59.370;18.016;2023-09-19T10:40:53;99155.53;;;21.10;86.39
14295;BME280;7231;59.370;18.016;2023-09-19T10:43:25;99167.13;;;21.51;85.93
14295;BME280;7231;59.370;18.016;2023-09-19T10:45:57;99174.06;;;21.96;84.33
14295;BME280;7231;59.370;18.016;2023-09-19T10:48:28;99175.19;;;21.90;81.22
14295;BME280;7231;59.370;18.016;2023-09-19T10:51:01;99188.88;;;22.03;81.49
14295;BME280;7231;59.370;18.016;2023-09-19T10:53:45;99181.81;;;22.02;79.44
14295;BME280;7231;59.370;18.016;2023-09-19T10:56:20;99172.19;;;21.57;79.45
14295;BME280;7231;59.370;18.016;2023-09-19T10:58:49;99187.13;;;21.41;79.75
14295;BME280;7231;59.370;18.016;2023-09-19T11:01:18;99179.06;;;21.21;80.13
14295;BME280;7231;59.370;18.016;2023-09-19T11:03:48;99163.59;;;20.87;81.10
14295;BME280;7231;59.370;18.016;2023-09-19T11:06:39;99175.06;;;21.11;82.92
14295;BME280;7231;59.370;18.016;2023-09-19T11:09:09;99167.81;;;21.56;81.96
14295;BME280;7231;59.370;18.016;2023-09-19T11:11:50;99179.59;;;21.71;79.53
14295;BME280;7231;59.370;18.016;2023-09-19T11:14:30;99176.13;;;21.89;79.03
14295;BME280;7231;59.370;18.016;2023-09-19T11:17:32;99183.34;;;22.08;77.46
14295;BME280;7231;59.370;18.016;2023-09-19T11:20:19;99180.06;;;21.81;76.60
14295;BME280;7231;59.370;18.016;2023-09-19T11:23:18;99164.59;;;21.89;76.91
14295;BME280;7231;59.370;18.016;2023-09-19T11:25:51;99174.25;;;21.91;75.78
14295;BME280;7231;59.370;18.016;2023-09-19T11:28:33;99168.19;;;22.08;74.02
14295;BME280;7231;59.370;18.016;2023-09-19T11:34:46;99117.59;;;21.46;69.96
14295;BME280;7231;59.370;18.016;2023-09-19T11:40:38;99122.84;;;20.85;69.44
14295;BME280;7231;59.370;18.016;2023-09-19T11:43:31;99168.44;;;20.99;68.57
14295;BME280;7231;59.370;18.016;2023-09-19T11:46:03;99149.47;;;20.85;67.97
14295;BME280;7231;59.370;18.016;2023-09-19T11:48:32;99156.41;;;21.11;67.33
14295;BME280;7231;59.370;18.016;2023-09-19T11:51:01;99130.72;;;21.70;65.41
14295;BME280;7231;59.370;18.016;2023-09-19T11:53:42;99158.25;;;22.12;61.79
14295;BME280;7231;59.370;18.016;2023-09-19T11:56:11;99147.72;;;22.46;61.64
14295;BME280;7231;59.370;18.016;2023-09-19T11:58:43;99144.66;;;22.91;59.23
14295;BME280;7231;59.370;18.016;2023-09-19T12:01:13;99157.75;;;23.15;58.17
14295;BME280;7231;59.370;18.016;2023-09-19T12:03:53;99133.56;;;22.63;56.71
14295;BME280;7231;59.370;18.016;2023-09-19T12:06:21;99157.03;;;22.56;56.96
14295;BME280;7231;59.370;18.016;2023-09-19T12:08:51;99161.94;;;22.28;58.51
14295;BME280;7231;59.370;18.016;2023-09-19T12:11:21;99165.59;;;22.07;59.10
14295;BME280;7231;59.370;18.016;2023-09-19T12:13:52;99176.59;;;21.79;59.50
14295;BME280;7231;59.370;18.016;2023-09-19T12:16:24;99161.78;;;21.31;58.90
14295;BME280;7231;59.370;18.016;2023-09-19T12:18:52;99181.81;;;21.19;57.96
14295;BME280;7231;59.370;18.016;2023-09-19T12:21:27;99165.59;;;21.46;56.29
14295;BME280;7231;59.370;18.016;2023-09-19T12:24:04;99174.59;;;21.21;55.49
14295;BME280;7231;59.370;18.016;2023-09-19T12:26:39;99164.22;;;21.57;55.35
14295;BME280;7231;59.370;18.016;2023-09-19T12:29:17;99167.91;;;22.14;54.21
14295;BME280;7231;59.370;18.016;2023-09-19T12:31:52;99147.50;;;22.88;52.73
14295;BME280;7231;59.370;18.016;2023-09-19T12:34:23;99148.94;;;23.13;51.90
14295;BME280;7231;59.370;18.016;2023-09-19T12:37:04;99152.41;;;23.32;50.58
14295;BME280;7231;59.370;18.016;2023-09-19T12:39:39;99165.75;;;22.79;50.75
14295;BME280;7231;59.370;18.016;2023-09-19T12:42:10;99138.03;;;22.81;50.60
14295;BME280;7231;59.370;18.016;2023-09-19T12:44:44;99169.53;;;22.56;50.26
14295;BME280;7231;59.370;18.016;2023-09-19T12:47:14;99176.13;;;21.89;51.47
14295;BME280;7231;59.370;18.016;2023-09-19T12:50:06;99159.13;;;21.31;52.00
14295;BME280;7231;59.370;18.016;2023-09-19T12:52:35;99165.22;;;20.91;52.73
14295;BME280;7231;59.370;18.016;2023-09-19T12:55:04;99173.28;;;20.67;53.42
14295;BME280;7231;59.370;18.016;2023-09-19T12:57:33;99171.06;;;20.57;53.98
14295;BME280;7231;59.370;18.016;2023-09-19T13:00:04;99158.41;;;20.40;53.41
14295;BME280;7231;59.370;18.016;2023-09-19T13:02:34;99179.94;;;20.32;53.24
14295;BME280;7231;59.370;18.016;2023-09-19T13:05:02;99153.50;;;20.28;53.44
14295;BME280;7231;59.370;18.016;2023-09-19T13:07:40;99157.34;;;20.21;52.90
14295;BME280;7231;59.370;18.016;2023-09-19T13:10:10;99098.25;;;19.64;52.97
14295;BME280;7231;59.370;18.016;2023-09-19T13:12:42;99164.53;;;19.94;53.03
14295;BME280;7231;59.370;18.016;2023-09-19T13:15:15;99163.84;;;19.89;53.25
14295;BME280;7231;59.370;18.016;2023-09-19T13:17:47;99179.53;;;19.96;53.57
14295;BME280;7231;59.370;18.016;2023-09-19T13:20:23;99180.88;;;20.08;53.64